sensor_id;sensor_type;location;lat;lon;timestamp;temperature;humidity
28189;DHT22;15471;51.166;4.470;2023-04-27T00:00:50;5.00;99.90
28189;DHT22;15471;51.166;4.470;2023-04-27T00:03:16;5.10;99.90
28189;DHT22;15471;51.166;4.470;2023-04-27T00:05:42;5.00;99.90
28189;DHT22;15471;51.166;4.470;2023-04-27T00:08:08;5.00;99.90
28189;DHT22;15471;51.166;4.470;2023-04-27T00:10:34;5.00;99.90
28189;DHT22;15471;51.166;4.470;2023-04-27T00:13:00;5.00;99.90
28189;DHT22;15471;51.166;4.470;2023-04-27T00:15:27;5.00;99.90
28189;DHT22;15471;51.166;4.470;2023-04-27T00:17:54;4.90;99.90
28189;DHT22;15471;51.166;4.470;2023-04-27T00:20:22;4.90;99.90
28189;DHT22;15471;51.166;4.470;2023-04-27T00:22:48;5.00;99.90
28189;DHT22;15471;51.166;4.470;2023-04-27T00:25:14;4.90;99.90
28189;DHT22;15471;51.166;4.470;2023-04-27T00:27:40;4.90;99.90
28189;DHT22;15471;51.166;4.470;2023-04-27T00:30:06;4.80;99.90
28189;DHT22;15471;51.166;4.470;2023-04-27T00:32:33;4.80;99.90
28189;DHT22;15471;51.166;4.470;2023-04-27T00:34:59;4.70;99.90
28189;DHT22;15471;51.166;4.470;2023-04-27T00:37:25;4.70;99.90
28189;DHT22;15471;51.166;4.470;2023-04-27T00:40:05;4.70;99.90
28189;DHT22;15471;51.166;4.470;2023-04-27T00:42:33;4.70;99.90
28189;DHT22;15471;51.166;4.470;2023-04-27T00:44:59;4.70;99.90
28189;DHT22;15471;51.166;4.470;2023-04-27T00:47:28;4.70;99.90
28189;DHT22;15471;51.166;4.470;2023-04-27T00:49:54;4.70;99.90
28189;DHT22;15471;51.166;4.470;2023-04-27T00:52:24;4.60;99.90
28189;DHT22;15471;51.166;4.470;2023-04-27T00:54:52;4.60;99.90
28189;DHT22;15471;51.166;4.470;2023-04-27T00:57:19;4.60;99.90
28189;DHT22;15471;51.166;4.470;2023-04-27T00:59:48;4.60;99.90
28189;DHT22;15471;51.166;4.470;2023-04-27T01:02:14;4.60;99.90
28189;DHT22;15471;51.166;4.470;2023-04-27T01:04:40;4.50;99.90
28189;DHT22;15471;51.166;4.470;2023-04-27T01:07:06;4.50;99.90
28189;DHT22;15471;51.166;4.470;2023-04-27T01:09:32;4.50;99.90
28189;DHT22;15471;51.166;4.470;2023-04-27T01:11:58;4.40;99.90
28189;DHT22;15471;51.166;4.470;2023-04-27T01:14:26;4.40;99.90
28189;DHT22;15471;51.166;4.470;2023-04-27T01:16:52;4.40;99.90
28189;DHT22;15471;51.166;4.470;2023-04-27T01:19:18;4.40;99.90
28189;DHT22;15471;51.166;4.470;2023-04-27T01:21:44;4.30;99.90
28189;DHT22;15471;51.166;4.470;2023-04-27T01:24:11;4.30;99.90
28189;DHT22;15471;51.166;4.470;2023-04-27T01:26:37;4.30;99.90
28189;DHT22;15471;51.166;4.470;2023-04-27T01:29:03;4.20;99.90
28189;DHT22;15471;51.166;4.470;2023-04-27T01:31:29;4.20;99.90
28189;DHT22;15471;51.166;4.470;2023-04-27T01:33:55;4.30;99.90
28189;DHT22;15471;51.166;4.470;2023-04-27T01:36:22;4.20;99.90
28189;DHT22;15471;51.166;4.470;2023-04-27T01:38:48;4.20;99.90
28189;DHT22;15471;51.166;4.470;2023-04-27T01:41:14;4.20;99.90
28189;DHT22;15471;51.166;4.470;2023-04-27T01:43:40;4.20;99.90
28189;DHT22;15471;51.166;4.470;2023-04-27T01:46:11;4.10;99.90
28189;DHT22;15471;51.166;4.470;2023-04-27T01:48:39;4.20;99.90
28189;DHT22;15471;51.166;4.470;2023-04-27T01:51:05;4.10;99.90
28189;DHT22;15471;51.166;4.470;2023-04-27T01:53:31;4.10;99.90
28189;DHT22;15471;51.166;4.470;2023-04-27T01:55:58;4.10;99.90
28189;DHT22;15471;51.166;4.470;2023-04-27T01:58:24;4.10;99.90
28189;DHT22;15471;51.166;4.470;2023-04-27T02:00:51;4.00;99.90
28189;DHT22;15471;51.166;4.470;2023-04-27T02:03:17;4.00;99.90
28189;DHT22;15471;51.166;4.470;2023-04-27T02:05:43;3.90;99.90
28189;DHT22;15471;51.166;4.470;2023-04-27T02:08:11;3.80;99.90
28189;DHT22;15471;51.166;4.470;2023-04-27T02:10:38;3.80;99.90
28189;DHT22;15471;51.166;4.470;2023-04-27T02:13:04;3.80;99.90
28189;DHT22;15471;51.166;4.470;2023-04-27T02:15:30;3.80;99.90
28189;DHT22;15471;51.166;4.470;2023-04-27T02:17:56;3.80;99.90
28189;DHT22;15471;51.166;4.470;2023-04-27T02:20:23;3.80;99.90
28189;DHT22;15471;51.166;4.470;2023-04-27T02:22:49;3.80;99.90
28189;DHT22;15471;51.166;4.470;2023-04-27T02:25:16;3.80;99.90
28189;DHT22;15471;51.166;4.470;2023-04-27T02:27:42;3.70;99.90
28189;DHT22;15471;51.166;4.470;2023-04-27T02:30:09;3.70;99.90
28189;DHT22;15471;51.166;4.470;2023-04-27T02:32:36;3.70;99.90
28189;DHT22;15471;51.166;4.470;2023-04-27T02:35:03;3.70;99.90
28189;DHT22;15471;51.166;4.470;2023-04-27T02:37:30;3.70;99.90
28189;DHT22;15471;51.166;4.470;2023-04-27T02:39:56;3.70;99.90
28189;DHT22;15471;51.166;4.470;2023-04-27T02:42:22;3.70;99.90
28189;DHT22;15471;51.166;4.470;2023-04-27T02:44:48;3.60;99.90
28189;DHT22;15471;51.166;4.470;2023-04-27T02:47:14;3.60;99.90
28189;DHT22;15471;51.166;4.470;2023-04-27T02:49:41;3.50;99.90
28189;DHT22;15471;51.166;4.470;2023-04-27T02:52:08;3.50;99.90
28189;DHT22;15471;51.166;4.470;2023-04-27T02:54:34;3.50;99.90
28189;DHT22;15471;51.166;4.470;2023-04-27T02:57:00;3.50;99.90
28189;DHT22;15471;51.166;4.470;2023-04-27T02:59:26;3.50;99.90
28189;DHT22;15471;51.166;4.470;2023-04-27T03:01:52;3.50;99.90
28189;DHT22;15471;51.166;4.470;2023-04-27T03:04:18;3.50;99.90
28189;DHT22;15471;51.166;4.470;2023-04-27T03:06:44;3.50;99.90
28189;DHT22;15471;51.166;4.470;2023-04-27T03:09:11;3.40;99.90
28189;DHT22;15471;51.166;4.470;2023-04-27T03:11:38;3.40;99.90
28189;DHT22;15471;51.166;4.470;2023-04-27T03:14:04;3.30;99.90
28189;DHT22;15471;51.166;4.470;2023-04-27T03:16:34;3.30;99.90
28189;DHT22;15471;51.166;4.470;2023-04-27T03:19:00;3.20;99.90
28189;DHT22;15471;51.166;4.470;2023-04-27T03:21:26;3.20;99.90
28189;DHT22;15471;51.166;4.470;2023-04-27T03:23:53;3.30;99.90
28189;DHT22;15471;51.166;4.470;2023-04-27T03:26:19;3.20;99.90
28189;DHT22;15471;51.166;4.470;2023-04-27T03:28:46;3.20;99.90
28189;DHT22;15471;51.166;4.470;2023-04-27T03:31:13;3.20;99.90
28189;DHT22;15471;51.166;4.470;2023-04-27T03:33:40;3.20;99.90
28189;DHT22;15471;51.166;4.470;2023-04-27T03:36:07;3.20;99.90
28189;DHT22;15471;51.166;4.470;2023-04-27T03:38:36;3.20;99.90
28189;DHT22;15471;51.166;4.470;2023-04-27T03:41:03;3.20;99.90
28189;DHT22;15471;51.166;4.470;2023-04-27T03:43:31;3.20;99.90
28189;DHT22;15471;51.166;4.470;2023-04-27T03:45:57;3.20;99.90
28189;DHT22;15471;51.166;4.470;2023-04-27T03:48:23;3.20;99.90
28189;DHT22;15471;51.166;4.470;2023-04-27T03:50:52;3.10;99.90
28189;DHT22;15471;51.166;4.470;2023-04-27T03:53:18;3.10;99.90
28189;DHT22;15471;51.166;4.470;2023-04-27T03:55:44;3.20;99.90
28189;DHT22;15471;51.166;4.470;2023-04-27T03:58:11;3.10;99.90
28189;DHT22;15471;51.166;4.470;2023-04-27T04:00:48;3.10;99.90
28189;DHT22;15471;51.166;4.470;2023-04-27T04:03:14;3.10;99.90
28189;DHT22;15471;51.166;4.470;2023-04-27T04:05:44;3.10;99.90
28189;DHT22;15471;51.166;4.470;2023-04-27T04:08:12;3.00;99.90
28189;DHT22;15471;51.166;4.470;2023-04-27T04:10:39;3.10;99.90
28189;DHT22;15471;51.166;4.470;2023-04-27T04:13:05;3.00;99.90
28189;DHT22;15471;51.166;4.470;2023-04-27T04:15:31;3.10;99.90
28189;DHT22;15471;51.166;4.470;2023-04-27T04:17:57;3.00;99.90
28189;DHT22;15471;51.166;4.470;2023-04-27T04:20:23;3.00;99.90
28189;DHT22;15471;51.166;4.470;2023-04-27T04:22:49;3.00;99.90
28189;DHT22;15471;51.166;4.470;2023-04-27T04:25:15;3.00;99.90
28189;DHT22;15471;51.166;4.470;2023-04-27T04:27:41;3.00;99.90
28189;DHT22;15471;51.166;4.470;2023-04-27T04:30:07;3.00;99.90
28189;DHT22;15471;51.166;4.470;2023-04-27T04:32:35;3.00;99.90
28189;DHT22;15471;51.166;4.470;2023-04-27T04:35:05;3.00;99.90
28189;DHT22;15471;51.166;4.470;2023-04-27T04:37:32;3.00;99.90
28189;DHT22;15471;51.166;4.470;2023-04-27T04:39:59;3.10;99.90
28189;DHT22;15471;51.166;4.470;2023-04-27T04:42:25;3.10;99.90
28189;DHT22;15471;51.166;4.470;2023-04-27T04:44:52;3.10;99.90
28189;DHT22;15471;51.166;4.470;2023-04-27T04:47:18;3.10;99.90
28189;DHT22;15471;51.166;4.470;2023-04-27T04:49:45;3.10;99.90
28189;DHT22;15471;51.166;4.470;2023-04-27T04:52:11;3.20;99.90
28189;DHT22;15471;51.166;4.470;2023-04-27T04:54:37;3.20;99.90
28189;DHT22;15471;51.166;4.470;2023-04-27T04:57:04;3.30;99.90
28189;DHT22;15471;51.166;4.470;2023-04-27T04:59:32;3.30;99.90
28189;DHT22;15471;51.166;4.470;2023-04-27T05:01:59;3.30;99.90
28189;DHT22;15471;51.166;4.470;2023-04-27T05:04:25;3.30;99.90
28189;DHT22;15471;51.166;4.470;2023-04-27T05:06:52;3.30;99.90
28189;DHT22;15471;51.166;4.470;2023-04-27T05:09:18;3.40;99.90
28189;DHT22;15471;51.166;4.470;2023-04-27T05:11:44;3.40;99.90
28189;DHT22;15471;51.166;4.470;2023-04-27T05:14:10;3.40;99.90
28189;DHT22;15471;51.166;4.470;2023-04-27T05:16:39;3.50;99.90
28189;DHT22;15471;51.166;4.470;2023-04-27T05:19:05;3.50;99.90
28189;DHT22;15471;51.166;4.470;2023-04-27T05:21:33;3.50;99.90
28189;DHT22;15471;51.166;4.470;2023-04-27T05:23:59;3.60;99.90
28189;DHT22;15471;51.166;4.470;2023-04-27T05:26:25;3.70;99.90
28189;DHT22;15471;51.166;4.470;2023-04-27T05:28:51;3.70;99.90
28189;DHT22;15471;51.166;4.470;2023-04-27T05:31:17;3.80;99.90
28189;DHT22;15471;51.166;4.470;2023-04-27T05:33:44;3.90;99.90
28189;DHT22;15471;51.166;4.470;2023-04-27T05:36:10;4.00;99.90
28189;DHT22;15471;51.166;4.470;2023-04-27T05:38:36;4.00;99.90
28189;DHT22;15471;51.166;4.470;2023-04-27T05:41:04;4.10;99.90
28189;DHT22;15471;51.166;4.470;2023-04-27T05:43:33;4.10;99.90
28189;DHT22;15471;51.166;4.470;2023-04-27T05:46:03;4.30;99.90
28189;DHT22;15471;51.166;4.470;2023-04-27T05:48:29;4.40;99.90
28189;DHT22;15471;51.166;4.470;2023-04-27T05:51:02;4.60;99.90
28189;DHT22;15471;51.166;4.470;2023-04-27T05:53:34;4.70;99.90
28189;DHT22;15471;51.166;4.470;2023-04-27T05:56:00;4.80;99.90
28189;DHT22;15471;51.166;4.470;2023-04-27T05:58:28;5.00;99.90
28189;DHT22;15471;51.166;4.470;2023-04-27T06:00:54;5.10;99.90
28189;DHT22;15471;51.166;4.470;2023-04-27T06:03:21;5.20;99.90
28189;DHT22;15471;51.166;4.470;2023-04-27T06:05:53;5.20;99.90
28189;DHT22;15471;51.166;4.470;2023-04-27T06:08:19;5.30;99.90
28189;DHT22;15471;51.166;4.470;2023-04-27T06:10:49;5.50;99.90
28189;DHT22;15471;51.166;4.470;2023-04-27T06:13:16;5.60;99.90
28189;DHT22;15471;51.166;4.470;2023-04-27T06:15:42;5.60;99.90
28189;DHT22;15471;51.166;4.470;2023-04-27T06:18:09;5.70;99.90
28189;DHT22;15471;51.166;4.470;2023-04-27T06:20:35;5.80;99.90
28189;DHT22;15471;51.166;4.470;2023-04-27T06:23:01;5.90;99.90
28189;DHT22;15471;51.166;4.470;2023-04-27T06:25:27;6.00;99.90
28189;DHT22;15471;51.166;4.470;2023-04-27T06:27:56;6.10;99.90
28189;DHT22;15471;51.166;4.470;2023-04-27T06:30:25;6.20;99.90
28189;DHT22;15471;51.166;4.470;2023-04-27T06:32:51;6.30;99.90
28189;DHT22;15471;51.166;4.470;2023-04-27T06:35:18;6.30;99.90
28189;DHT22;15471;51.166;4.470;2023-04-27T06:37:44;6.40;99.90
28189;DHT22;15471;51.166;4.470;2023-04-27T06:40:12;6.60;99.90
28189;DHT22;15471;51.166;4.470;2023-04-27T06:42:38;6.80;99.90
28189;DHT22;15471;51.166;4.470;2023-04-27T06:45:07;6.90;99.90
28189;DHT22;15471;51.166;4.470;2023-04-27T06:47:37;7.00;99.90
28189;DHT22;15471;51.166;4.470;2023-04-27T06:50:03;7.10;99.90
28189;DHT22;15471;51.166;4.470;2023-04-27T06:52:31;7.20;99.90
28189;DHT22;15471;51.166;4.470;2023-04-27T06:54:58;7.40;99.90
28189;DHT22;15471;51.166;4.470;2023-04-27T06:57:24;7.60;99.90
28189;DHT22;15471;51.166;4.470;2023-04-27T06:59:50;7.80;99.90
28189;DHT22;15471;51.166;4.470;2023-04-27T07:02:16;7.80;99.90
28189;DHT22;15471;51.166;4.470;2023-04-27T07:04:42;7.80;99.90
28189;DHT22;15471;51.166;4.470;2023-04-27T07:07:09;7.90;99.90
28189;DHT22;15471;51.166;4.470;2023-04-27T07:09:35;8.10;99.90
28189;DHT22;15471;51.166;4.470;2023-04-27T07:12:02;8.30;99.90
28189;DHT22;15471;51.166;4.470;2023-04-27T07:14:28;8.40;99.90
28189;DHT22;15471;51.166;4.470;2023-04-27T07:16:54;8.50;99.90
28189;DHT22;15471;51.166;4.470;2023-04-27T07:19:21;8.40;99.90
28189;DHT22;15471;51.166;4.470;2023-04-27T07:21:47;8.30;99.90
28189;DHT22;15471;51.166;4.470;2023-04-27T07:24:13;8.40;99.90
28189;DHT22;15471;51.166;4.470;2023-04-27T07:26:39;8.50;99.90
28189;DHT22;15471;51.166;4.470;2023-04-27T07:29:06;8.70;99.90
28189;DHT22;15471;51.166;4.470;2023-04-27T07:31:32;8.90;99.90
28189;DHT22;15471;51.166;4.470;2023-04-27T07:33:58;9.10;99.90
28189;DHT22;15471;51.166;4.470;2023-04-27T07:36:25;9.10;99.90
28189;DHT22;15471;51.166;4.470;2023-04-27T07:38:52;9.10;99.90
28189;DHT22;15471;51.166;4.470;2023-04-27T07:41:17;9.20;99.90
28189;DHT22;15471;51.166;4.470;2023-04-27T07:43:45;9.20;99.90
28189;DHT22;15471;51.166;4.470;2023-04-27T07:46:13;9.40;99.90
28189;DHT22;15471;51.166;4.470;2023-04-27T07:48:39;9.50;99.90
28189;DHT22;15471;51.166;4.470;2023-04-27T07:51:05;9.50;99.90
28189;DHT22;15471;51.166;4.470;2023-04-27T07:53:34;9.50;99.90
28189;DHT22;15471;51.166;4.470;2023-04-27T07:56:00;9.60;99.90
28189;DHT22;15471;51.166;4.470;2023-04-27T07:58:27;9.70;99.90
28189;DHT22;15471;51.166;4.470;2023-04-27T08:00:53;9.80;99.90
28189;DHT22;15471;51.166;4.470;2023-04-27T08:03:20;10.00;99.90
28189;DHT22;15471;51.166;4.470;2023-04-27T08:05:47;10.10;99.90
28189;DHT22;15471;51.166;4.470;2023-04-27T08:08:13;10.30;99.90
28189;DHT22;15471;51.166;4.470;2023-04-27T08:10:40;10.40;99.90
28189;DHT22;15471;51.166;4.470;2023-04-27T08:13:07;10.50;99.90
28189;DHT22;15471;51.166;4.470;2023-04-27T08:15:36;10.60;99.90
28189;DHT22;15471;51.166;4.470;2023-04-27T08:18:03;10.80;99.90
28189;DHT22;15471;51.166;4.470;2023-04-27T08:20:29;11.00;99.90
28189;DHT22;15471;51.166;4.470;2023-04-27T08:22:55;10.80;99.90
28189;DHT22;15471;51.166;4.470;2023-04-27T08:25:21;11.00;99.90
28189;DHT22;15471;51.166;4.470;2023-04-27T08:27:47;11.00;99.90
28189;DHT22;15471;51.166;4.470;2023-04-27T08:30:14;11.30;99.90
28189;DHT22;15471;51.166;4.470;2023-04-27T08:32:40;11.40;99.90
28189;DHT22;15471;51.166;4.470;2023-04-27T08:35:06;11.50;99.90
28189;DHT22;15471;51.166;4.470;2023-04-27T08:37:32;11.70;99.90
28189;DHT22;15471;51.166;4.470;2023-04-27T08:39:59;11.60;99.90
28189;DHT22;15471;51.166;4.470;2023-04-27T08:42:25;12.10;99.90
28189;DHT22;15471;51.166;4.470;2023-04-27T08:44:51;13.60;99.90
28189;DHT22;15471;51.166;4.470;2023-04-27T08:47:18;14.50;99.90
28189;DHT22;15471;51.166;4.470;2023-04-27T08:49:44;15.10;99.90
28189;DHT22;15471;51.166;4.470;2023-04-27T08:52:15;15.30;99.90
28189;DHT22;15471;51.166;4.470;2023-04-27T08:54:42;16.10;99.90
28189;DHT22;15471;51.166;4.470;2023-04-27T08:57:12;16.40;99.90
28189;DHT22;15471;51.166;4.470;2023-04-27T08:59:39;16.50;96.40
28189;DHT22;15471;51.166;4.470;2023-04-27T09:02:06;16.40;95.70
28189;DHT22;15471;51.166;4.470;2023-04-27T09:04:39;16.60;95.10
28189;DHT22;15471;51.166;4.470;2023-04-27T09:07:16;16.40;92.70
28189;DHT22;15471;51.166;4.470;2023-04-27T09:09:44;16.20;91.90
28189;DHT22;15471;51.166;4.470;2023-04-27T09:12:18;16.20;92.90
28189;DHT22;15471;51.166;4.470;2023-04-27T09:14:59;16.10;91.40
28189;DHT22;15471;51.166;4.470;2023-04-27T09:17:26;16.40;92.10
28189;DHT22;15471;51.166;4.470;2023-04-27T09:20:05;16.60;90.90
28189;DHT22;15471;51.166;4.470;2023-04-27T09:22:49;16.80;91.40
28189;DHT22;15471;51.166;4.470;2023-04-27T09:25:38;17.10;90.80
28189;DHT22;15471;51.166;4.470;2023-04-27T09:28:07;16.70;90.20
28189;DHT22;15471;51.166;4.470;2023-04-27T09:30:33;16.70;88.80
28189;DHT22;15471;51.166;4.470;2023-04-27T09:33:04;17.00;89.90
28189;DHT22;15471;51.166;4.470;2023-04-27T09:35:33;17.30;90.00
28189;DHT22;15471;51.166;4.470;2023-04-27T09:38:07;17.00;88.90
28189;DHT22;15471;51.166;4.470;2023-04-27T09:40:36;16.90;85.00
28189;DHT22;15471;51.166;4.470;2023-04-27T09:43:05;16.80;87.00
28189;DHT22;15471;51.166;4.470;2023-04-27T09:45:32;16.40;86.90
28189;DHT22;15471;51.166;4.470;2023-04-27T09:48:03;16.40;88.70
28189;DHT22;15471;51.166;4.470;2023-04-27T09:50:37;16.30;87.30
28189;DHT22;15471;51.166;4.470;2023-04-27T09:53:18;16.20;86.40
28189;DHT22;15471;51.166;4.470;2023-04-27T09:59:02;16.10;86.60
28189;DHT22;15471;51.166;4.470;2023-04-27T10:05:33;16.20;87.10
28189;DHT22;15471;51.166;4.470;2023-04-27T10:07:55;16.10;82.30
28189;DHT22;15471;51.166;4.470;2023-04-27T10:10:46;15.70;84.90
28189;DHT22;15471;51.166;4.470;2023-04-27T10:13:20;15.90;86.60
28189;DHT22;15471;51.166;4.470;2023-04-27T10:15:47;16.00;85.20
28189;DHT22;15471;51.166;4.470;2023-04-27T10:18:24;16.40;84.70
28189;DHT22;15471;51.166;4.470;2023-04-27T10:20:51;16.60;80.50
28189;DHT22;15471;51.166;4.470;2023-04-27T10:23:25;16.30;78.30
28189;DHT22;15471;51.166;4.470;2023-04-27T10:25:53;16.10;81.30
28189;DHT22;15471;51.166;4.470;2023-04-27T10:28:20;16.40;81.40
28189;DHT22;15471;51.166;4.470;2023-04-27T10:30:47;16.40;80.30
28189;DHT22;15471;51.166;4.470;2023-04-27T10:33:21;16.40;80.40
28189;DHT22;15471;51.166;4.470;2023-04-27T10:35:56;16.60;80.90
28189;DHT22;15471;51.166;4.470;2023-04-27T10:38:32;15.90;81.60
28189;DHT22;15471;51.166;4.470;2023-04-27T10:41:02;16.00;83.30
28189;DHT22;15471;51.166;4.470;2023-04-27T10:43:33;16.30;82.10
28189;DHT22;15471;51.166;4.470;2023-04-27T10:46:10;16.20;80.10
28189;DHT22;15471;51.166;4.470;2023-04-27T10:48:51;16.00;80.30
28189;DHT22;15471;51.166;4.470;2023-04-27T10:51:18;16.00;79.10
28189;DHT22;15471;51.166;4.470;2023-04-27T10:53:44;16.30;79.90
28189;DHT22;15471;51.166;4.470;2023-04-27T10:56:10;16.50;79.30
28189;DHT22;15471;51.166;4.470;2023-04-27T10:58:37;16.50;79.00
28189;DHT22;15471;51.166;4.470;2023-04-27T11:01:03;16.30;77.00
28189;DHT22;15471;51.166;4.470;2023-04-27T11:03:32;16.30;79.10
28189;DHT22;15471;51.166;4.470;2023-04-27T11:06:04;16.30;72.90
28189;DHT22;15471;51.166;4.470;2023-04-27T11:08:31;16.10;77.60
28189;DHT22;15471;51.166;4.470;2023-04-27T11:11:01;16.10;77.00
28189;DHT22;15471;51.166;4.470;2023-04-27T11:13:27;16.00;77.50
28189;DHT22;15471;51.166;4.470;2023-04-27T11:15:55;16.00;78.80
28189;DHT22;15471;51.166;4.470;2023-04-27T11:18:25;16.10;75.50
28189;DHT22;15471;51.166;4.470;2023-04-27T11:20:54;16.00;76.70
28189;DHT22;15471;51.166;4.470;2023-04-27T11:23:31;16.20;79.00
28189;DHT22;15471;51.166;4.470;2023-04-27T11:26:18;16.30;75.70
28189;DHT22;15471;51.166;4.470;2023-04-27T11:29:07;16.30;74.80
28189;DHT22;15471;51.166;4.470;2023-04-27T11:31:46;16.10;76.10
28189;DHT22;15471;51.166;4.470;2023-04-27T11:34:19;16.00;75.70
28189;DHT22;15471;51.166;4.470;2023-04-27T11:37:05;16.00;76.10
28189;DHT22;15471;51.166;4.470;2023-04-27T11:39:35;16.00;77.20
28189;DHT22;15471;51.166;4.470;2023-04-27T11:42:18;15.90;77.70
28189;DHT22;15471;51.166;4.470;2023-04-27T11:44:54;16.00;76.60
28189;DHT22;15471;51.166;4.470;2023-04-27T11:47:22;15.70;74.90
28189;DHT22;15471;51.166;4.470;2023-04-27T11:49:49;15.40;74.30
28189;DHT22;15471;51.166;4.470;2023-04-27T11:52:31;15.40;75.70
28189;DHT22;15471;51.166;4.470;2023-04-27T11:55:03;15.40;77.50
28189;DHT22;15471;51.166;4.470;2023-04-27T11:57:33;15.70;76.20
28189;DHT22;15471;51.166;4.470;2023-04-27T12:00:03;15.70;77.90
28189;DHT22;15471;51.166;4.470;2023-04-27T12:02:44;15.80;77.70
28189;DHT22;15471;51.166;4.470;2023-04-27T12:05:10;15.90;75.20
28189;DHT22;15471;51.166;4.470;2023-04-27T12:07:37;15.60;72.80
28189;DHT22;15471;51.166;4.470;2023-04-27T12:10:04;15.40;76.20
28189;DHT22;15471;51.166;4.470;2023-04-27T12:12:31;15.40;74.50
28189;DHT22;15471;51.166;4.470;2023-04-27T12:14:58;15.40;75.10
28189;DHT22;15471;51.166;4.470;2023-04-27T12:17:24;15.40;75.90
28189;DHT22;15471;51.166;4.470;2023-04-27T12:19:53;15.30;76.40
28189;DHT22;15471;51.166;4.470;2023-04-27T12:22:22;15.40;76.60
28189;DHT22;15471;51.166;4.470;2023-04-27T12:24:48;15.40;77.60
28189;DHT22;15471;51.166;4.470;2023-04-27T12:27:14;15.10;73.70
28189;DHT22;15471;51.166;4.470;2023-04-27T12:29:40;15.10;75.30
28189;DHT22;15471;51.166;4.470;2023-04-27T12:32:09;15.00;72.10
28189;DHT22;15471;51.166;4.470;2023-04-27T12:34:36;15.10;74.00
28189;DHT22;15471;51.166;4.470;2023-04-27T12:37:04;15.20;72.80
28189;DHT22;15471;51.166;4.470;2023-04-27T12:39:50;15.30;71.10
28189;DHT22;15471;51.166;4.470;2023-04-27T12:42:17;15.40;75.10
28189;DHT22;15471;51.166;4.470;2023-04-27T12:44:48;15.50;74.90
28189;DHT22;15471;51.166;4.470;2023-04-27T12:47:14;15.70;73.00
28189;DHT22;15471;51.166;4.470;2023-04-27T12:49:40;16.00;72.50
28189;DHT22;15471;51.166;4.470;2023-04-27T12:52:06;16.00;71.30
28189;DHT22;15471;51.166;4.470;2023-04-27T12:54:38;15.90;68.80
28189;DHT22;15471;51.166;4.470;2023-04-27T12:57:05;15.60;67.90
28189;DHT22;15471;51.166;4.470;2023-04-27T12:59:37;15.60;70.40
28189;DHT22;15471;51.166;4.470;2023-04-27T13:02:06;15.60;68.00
28189;DHT22;15471;51.166;4.470;2023-04-27T13:04:32;15.80;69.60
28189;DHT22;15471;51.166;4.470;2023-04-27T13:06:58;16.00;69.50
28189;DHT22;15471;51.166;4.470;2023-04-27T13:09:33;16.20;70.30
28189;DHT22;15471;51.166;4.470;2023-04-27T13:12:01;16.60;70.00
28189;DHT22;15471;51.166;4.470;2023-04-27T13:14:27;17.10;68.00
28189;DHT22;15471;51.166;4.470;2023-04-27T13:16:53;17.50;66.90
28189;DHT22;15471;51.166;4.470;2023-04-27T13:19:20;17.70;65.40
28189;DHT22;15471;51.166;4.470;2023-04-27T13:21:46;18.20;63.30
28189;DHT22;15471;51.166;4.470;2023-04-27T13:24:12;18.40;64.50
28189;DHT22;15471;51.166;4.470;2023-04-27T13:26:42;18.70;64.20
28189;DHT22;15471;51.166;4.470;2023-04-27T13:29:08;18.90;64.00
28189;DHT22;15471;51.166;4.470;2023-04-27T13:31:34;19.10;61.80
28189;DHT22;15471;51.166;4.470;2023-04-27T13:34:01;19.20;61.40
28189;DHT22;15471;51.166;4.470;2023-04-27T13:36:29;19.20;59.00
28189;DHT22;15471;51.166;4.470;2023-04-27T13:38:55;19.00;60.00
28189;DHT22;15471;51.166;4.470;2023-04-27T13:41:21;18.90;59.30
28189;DHT22;15471;51.166;4.470;2023-04-27T13:43:47;18.80;60.00
28189;DHT22;15471;51.166;4.470;2023-04-27T13:46:13;18.60;60.60
28189;DHT22;15471;51.166;4.470;2023-04-27T13:48:40;18.70;59.50
28189;DHT22;15471;51.166;4.470;2023-04-27T13:51:08;18.70;59.40
28189;DHT22;15471;51.166;4.470;2023-04-27T13:53:34;18.60;61.30
28189;DHT22;15471;51.166;4.470;2023-04-27T13:56:01;18.90;58.70
28189;DHT22;15471;51.166;4.470;2023-04-27T13:58:27;18.90;59.10
28189;DHT22;15471;51.166;4.470;2023-04-27T14:00:59;18.10;57.40
28189;DHT22;15471;51.166;4.470;2023-04-27T14:03:26;18.00;61.90
28189;DHT22;15471;51.166;4.470;2023-04-27T14:05:52;17.60;58.70
28189;DHT22;15471;51.166;4.470;2023-04-27T14:08:18;17.50;60.70
28189;DHT22;15471;51.166;4.470;2023-04-27T14:10:46;17.60;62.20
28189;DHT22;15471;51.166;4.470;2023-04-27T14:13:12;17.90;60.80
28189;DHT22;15471;51.166;4.470;2023-04-27T14:15:39;18.00;60.40
28189;DHT22;15471;51.166;4.470;2023-04-27T14:18:09;18.10;61.00
28189;DHT22;15471;51.166;4.470;2023-04-27T14:20:36;18.00;58.90
28189;DHT22;15471;51.166;4.470;2023-04-27T14:23:03;18.10;59.20
28189;DHT22;15471;51.166;4.470;2023-04-27T14:25:30;18.10;59.00
28189;DHT22;15471;51.166;4.470;2023-04-27T14:28:00;18.00;59.20
28189;DHT22;15471;51.166;4.470;2023-04-27T14:30:33;17.70;59.00
28189;DHT22;15471;51.166;4.470;2023-04-27T14:33:00;18.00;62.00
28189;DHT22;15471;51.166;4.470;2023-04-27T14:35:27;18.40;60.10
28189;DHT22;15471;51.166;4.470;2023-04-27T14:37:53;18.60;57.50
28189;DHT22;15471;51.166;4.470;2023-04-27T14:40:21;18.80;57.50
28189;DHT22;15471;51.166;4.470;2023-04-27T14:42:48;19.00;58.10
28189;DHT22;15471;51.166;4.470;2023-04-27T14:45:14;18.70;58.40
28189;DHT22;15471;51.166;4.470;2023-04-27T14:47:42;18.60;56.50
28189;DHT22;15471;51.166;4.470;2023-04-27T14:50:08;17.90;58.20
28189;DHT22;15471;51.166;4.470;2023-04-27T14:52:36;17.80;60.10
28189;DHT22;15471;51.166;4.470;2023-04-27T14:55:02;17.90;59.00
28189;DHT22;15471;51.166;4.470;2023-04-27T14:57:28;18.10;59.90
28189;DHT22;15471;51.166;4.470;2023-04-27T14:59:54;18.30;59.80
28189;DHT22;15471;51.166;4.470;2023-04-27T15:02:21;18.40;59.50
28189;DHT22;15471;51.166;4.470;2023-04-27T15:04:47;18.60;59.20
28189;DHT22;15471;51.166;4.470;2023-04-27T15:07:13;18.80;58.30
28189;DHT22;15471;51.166;4.470;2023-04-27T15:09:39;18.70;58.90
28189;DHT22;15471;51.166;4.470;2023-04-27T15:12:05;18.60;58.50
28189;DHT22;15471;51.166;4.470;2023-04-27T15:14:33;18.60;58.40
28189;DHT22;15471;51.166;4.470;2023-04-27T15:16:59;18.80;58.70
28189;DHT22;15471;51.166;4.470;2023-04-27T15:19:25;18.80;56.70
28189;DHT22;15471;51.166;4.470;2023-04-27T15:21:52;18.50;56.70
28189;DHT22;15471;51.166;4.470;2023-04-27T15:24:18;18.40;58.00
28189;DHT22;15471;51.166;4.470;2023-04-27T15:26:45;18.50;58.80
28189;DHT22;15471;51.166;4.470;2023-04-27T15:29:13;18.50;57.80
28189;DHT22;15471;51.166;4.470;2023-04-27T15:31:39;18.60;57.10
28189;DHT22;15471;51.166;4.470;2023-04-27T15:34:05;18.30;57.30
28189;DHT22;15471;51.166;4.470;2023-04-27T15:36:31;18.30;56.70
28189;DHT22;15471;51.166;4.470;2023-04-27T15:38:58;18.50;57.50
28189;DHT22;15471;51.166;4.470;2023-04-27T15:41:24;18.30;56.40
28189;DHT22;15471;51.166;4.470;2023-04-27T15:43:50;18.40;58.40
28189;DHT22;15471;51.166;4.470;2023-04-27T15:46:16;18.90;58.90
28189;DHT22;15471;51.166;4.470;2023-04-27T15:48:43;19.30;59.10